Time;durP1;ratioP1;P1;durP2;ratioP2;P2;SDS_P1;SDS_P2;PMS_P1;PMS_P2;Temp;Humidity;BMP_temperature;BMP_pressure;BME280_temperature;BME280_humidity;BME280_pressure;Samples;Min_cycle;Max_cycle;Signal;HPM_P1;HPM_P2
2022/07/10 00:01:52;;;;;;;7.05;1.65;;;13.70;99.90;;;;;;6182403;23;20024;-73
2022/07/10 00:04:20;;;;;;;7.93;1.70;;;13.70;99.90;;;;;;6182864;23;20445;-73
2022/07/10 00:06:49;;;;;;;11.30;2.65;;;13.70;99.90;;;;;;6179270;23;20024;-73
2022/07/10 00:09:15;;;;;;;7.00;1.42;;;13.70;99.90;;;;;;6179176;23;20020;-73
2022/07/10 00:11:42;;;;;;;7.00;1.60;;;13.60;99.90;;;;;;6179494;23;20017;-73
2022/07/10 00:14:08;;;;;;;7.05;1.40;;;13.60;99.90;;;;;;6181493;23;20044;-73
2022/07/10 00:16:34;;;;;;;5.85;1.50;;;13.60;99.90;;;;;;6156018;23;20020;-73
2022/07/10 00:19:01;;;;;;;7.50;1.63;;;13.60;99.90;;;;;;6207573;23;20551;-73
2022/07/10 00:21:27;;;;;;;10.23;2.10;;;13.60;99.90;;;;;;6182013;23;20013;-73
2022/07/10 00:23:55;;;;;;;8.70;1.63;;;13.60;99.90;;;;;;6181674;23;20513;-74
2022/07/10 00:26:21;;;;;;;8.07;1.85;;;13.60;99.90;;;;;;6156302;23;20115;-73
2022/07/10 00:28:47;;;;;;;12.43;2.10;;;13.50;99.90;;;;;;6180598;23;20135;-73
2022/07/10 00:31:12;;;;;;;8.55;2.17;;;13.50;99.90;;;;;;6205701;23;20119;-73
2022/07/10 00:33:38;;;;;;;8.88;2.10;;;13.40;99.90;;;;;;6205929;23;20099;-73
2022/07/10 00:36:05;;;;;;;9.40;1.88;;;13.30;99.90;;;;;;6156117;23;20017;-73
2022/07/10 00:38:31;;;;;;;8.82;2.03;;;13.30;99.90;;;;;;6206499;23;20031;-73
2022/07/10 00:40:57;;;;;;;8.38;1.90;;;13.40;99.90;;;;;;6179660;23;20346;-73
2022/07/10 00:43:23;;;;;;;6.57;1.70;;;13.30;99.90;;;;;;6180812;23;20017;-73
2022/07/10 00:45:49;;;;;;;8.23;2.10;;;13.40;99.90;;;;;;6204573;23;20021;-74
2022/07/10 00:48:15;;;;;;;8.15;2.08;;;13.30;99.90;;;;;;6181403;23;20342;-73
2022/07/10 00:50:43;;;;;;;7.63;1.63;;;13.30;99.90;;;;;;6179397;23;20016;-73
2022/07/10 00:53:13;;;;;;;5.97;1.75;;;13.30;99.90;;;;;;6180938;23;20031;-73
2022/07/10 00:55:40;;;;;;;7.03;2.15;;;13.30;99.90;;;;;;6155713;23;20350;-73
2022/07/10 00:58:11;;;;;;;8.93;1.77;;;13.30;99.90;;;;;;6179961;23;20016;-73
2022/07/10 01:00:37;;;;;;;8.65;2.45;;;13.30;99.90;;;;;;6180543;23;20334;-73
2022/07/10 01:03:03;;;;;;;10.43;2.42;;;13.30;99.90;;;;;;6205220;23;20062;-73
2022/07/10 01:05:29;;;;;;;9.48;2.20;;;13.30;99.90;;;;;;6177220;23;20027;-73
2022/07/10 01:07:55;;;;;;;10.35;2.08;;;13.30;99.90;;;;;;6202758;23;20017;-73
2022/07/10 01:10:21;;;;;;;9.30;1.65;;;13.20;99.90;;;;;;6204667;23;20552;-73
2022/07/10 01:12:47;;;;;;;9.82;2.10;;;13.20;99.90;;;;;;6205285;23;20020;-73
2022/07/10 01:15:13;;;;;;;9.15;2.00;;;13.20;99.90;;;;;;6205352;23;20020;-73
2022/07/10 01:17:39;;;;;;;8.40;1.88;;;13.20;99.90;;;;;;6204642;23;20392;-73
2022/07/10 01:20:09;;;;;;;8.95;2.20;;;13.20;99.90;;;;;;6204312;23;20516;-73
2022/07/10 01:22:38;;;;;;;9.02;2.25;;;13.20;99.90;;;;;;6202081;23;20139;-73
2022/07/10 01:25:05;;;;;;;10.82;1.60;;;13.20;99.90;;;;;;6180015;23;20024;-73
2022/07/10 01:27:31;;;;;;;6.65;1.70;;;13.30;99.90;;;;;;6180334;23;20017;-73
2022/07/10 01:29:58;;;;;;;10.40;2.40;;;13.30;99.90;;;;;;6204993;23;20138;-73
2022/07/10 01:32:24;;;;;;;8.90;1.88;;;13.30;99.90;;;;;;6204998;23;20325;-73
2022/07/10 01:34:50;;;;;;;7.55;1.90;;;13.30;99.90;;;;;;6180690;23;20031;-73
2022/07/10 01:37:15;;;;;;;12.20;2.28;;;13.20;99.90;;;;;;6155259;23;20012;-73
2022/07/10 01:39:41;;;;;;;12.35;1.92;;;13.20;99.90;;;;;;6204689;23;20059;-73
2022/07/10 01:42:07;;;;;;;7.57;1.90;;;13.20;99.90;;;;;;6206411;23;20031;-74
2022/07/10 01:44:33;;;;;;;6.32;1.70;;;13.20;99.90;;;;;;6152282;23;20020;-73
2022/07/10 01:46:58;;;;;;;8.40;1.92;;;13.10;99.90;;;;;;6154679;23;20521;-73
2022/07/10 01:49:24;;;;;;;9.77;2.38;;;13.10;99.90;;;;;;6203361;23;20024;-73
2022/07/10 01:51:50;;;;;;;9.05;2.10;;;13.00;99.90;;;;;;6177663;23;20130;-72
2022/07/10 01:54:16;;;;;;;8.07;1.65;;;13.00;99.90;;;;;;6156177;23;20449;-73
2022/07/10 01:56:41;;;;;;;10.43;1.92;;;12.90;99.90;;;;;;6205873;23;20052;-73
2022/07/10 01:59:07;;;;;;;7.22;1.85;;;12.90;99.90;;;;;;6156352;23;20342;-73
2022/07/10 02:01:33;;;;;;;8.77;2.58;;;12.80;99.90;;;;;;6179850;23;20016;-72
2022/07/10 02:06:44;;;;;;;9.02;2.20;;;12.70;99.90;;;;;;6183686;23;20028;-73
2022/07/10 02:09:10;;;;;;;9.02;2.10;;;12.60;99.90;;;;;;6181681;23;20025;-73
2022/07/10 02:11:36;;;;;;;11.48;2.60;;;12.60;99.90;;;;;;6156030;23;20090;-72
2022/07/10 02:14:01;;;;;;;7.97;2.08;;;12.50;99.90;;;;;;6181134;23;20066;-73
2022/07/10 02:16:27;;;;;;;12.80;2.47;;;12.50;99.90;;;;;;6181794;23;20017;-72
2022/07/10 02:18:53;;;;;;;9.40;2.30;;;12.40;99.90;;;;;;6156490;23;20453;-73
2022/07/10 02:21:19;;;;;;;10.45;2.20;;;12.40;99.90;;;;;;6156072;23;20027;-73
2022/07/10 02:23:44;;;;;;;9.82;2.25;;;12.40;99.90;;;;;;6156944;23;20060;-73
2022/07/10 02:26:10;;;;;;;10.90;2.67;;;12.30;99.90;;;;;;6132840;23;20023;-73
2022/07/10 02:28:36;;;;;;;7.75;2.35;;;12.30;99.90;;;;;;6181244;23;20350;-74
2022/07/10 02:31:02;;;;;;;11.75;2.42;;;12.30;99.90;;;;;;6157910;23;20544;-73
2022/07/10 02:33:28;;;;;;;8.55;2.05;;;12.30;99.90;;;;;;6183188;23;20346;-73
2022/07/10 02:35:53;;;;;;;8.93;2.08;;;12.20;99.90;;;;;;6133334;23;20028;-73
2022/07/10 02:38:19;;;;;;;10.27;1.98;;;12.30;99.90;;;;;;6134502;23;20020;-73
2022/07/10 02:40:45;;;;;;;8.77;2.70;;;12.20;99.90;;;;;;6157230;23;20012;-73
2022/07/10 02:43:11;;;;;;;11.45;2.40;;;12.20;99.90;;;;;;6158219;23;20024;-73
2022/07/10 02:45:36;;;;;;;7.63;1.85;;;12.10;99.90;;;;;;6158104;23;20020;-74
2022/07/10 02:48:02;;;;;;;11.27;2.25;;;12.10;99.90;;;;;;6132823;23;20079;-72
2022/07/10 02:50:29;;;;;;;10.38;2.35;;;12.10;99.90;;;;;;6157998;23;20016;-72
2022/07/10 02:52:54;;;;;;;7.53;2.10;;;12.00;99.90;;;;;;6182617;23;20618;-73
2022/07/10 02:55:20;;;;;;;6.72;2.10;;;12.00;99.90;;;;;;6157765;23;20128;-73
2022/07/10 02:57:46;;;;;;;11.02;2.60;;;12.00;99.90;;;;;;6178407;23;20029;-73
2022/07/10 03:00:12;;;;;;;10.27;2.38;;;12.00;99.90;;;;;;6157048;23;20020;-73
2022/07/10 03:02:38;;;;;;;10.23;1.90;;;12.00;99.90;;;;;;6183114;23;20390;-73
2022/07/10 03:05:04;;;;;;;9.88;2.90;;;12.00;99.90;;;;;;6158165;23;20361;-73
2022/07/10 03:07:30;;;;;;;12.13;3.00;;;11.90;99.90;;;;;;6157806;23;20020;-73
2022/07/10 03:09:56;;;;;;;12.40;2.45;;;11.90;99.90;;;;;;6157063;23;20021;-73
2022/07/10 03:12:21;;;;;;;10.02;2.63;;;11.90;99.90;;;;;;6158659;23;20390;-73
2022/07/10 03:14:48;;;;;;;11.32;2.92;;;11.90;99.90;;;;;;6132754;23;20056;-73
2022/07/10 03:17:14;;;;;;;11.13;2.17;;;11.90;99.90;;;;;;6182389;23;20025;-72
2022/07/10 03:19:39;;;;;;;9.27;2.20;;;11.80;99.90;;;;;;6132686;23;20484;-73
2022/07/10 03:22:05;;;;;;;13.18;2.47;;;11.90;99.90;;;;;;6172450;23;20020;-73
2022/07/10 03:24:31;;;;;;;10.20;2.88;;;11.90;99.90;;;;;;6206733;23;20016;-71
2022/07/10 03:26:57;;;;;;;8.95;1.90;;;11.90;99.90;;;;;;6182875;23;20103;-71
2022/07/10 03:29:25;;;;;;;8.65;2.33;;;11.90;99.90;;;;;;6181528;23;20029;-71
2022/07/10 03:31:51;;;;;;;11.20;2.67;;;12.00;99.90;;;;;;6207215;23;20023;-71
2022/07/10 03:34:17;;;;;;;11.02;2.33;;;12.00;99.90;;;;;;6207444;23;20048;-71
2022/07/10 03:36:43;;;;;;;9.77;2.00;;;12.10;99.90;;;;;;6182064;23;20718;-71
2022/07/10 03:39:09;;;;;;;8.35;1.85;;;12.10;99.90;;;;;;6157733;23;20016;-73
2022/07/10 03:41:35;;;;;;;10.18;2.70;;;12.20;99.90;;;;;;6181642;23;20538;-73
2022/07/10 03:44:01;;;;;;;7.93;2.40;;;12.30;99.90;;;;;;6208036;23;20096;-73
2022/07/10 03:46:27;;;;;;;8.23;1.83;;;12.30;99.90;;;;;;6182721;23;20016;-73
2022/07/10 03:48:53;;;;;;;11.77;2.25;;;12.40;99.90;;;;;;6182416;23;20025;-73
2022/07/10 03:51:19;;;;;;;7.18;1.80;;;12.40;99.90;;;;;;6182672;23;20016;-73
2022/07/10 03:53:45;;;;;;;10.52;2.33;;;12.50;99.90;;;;;;6208071;23;20012;-73
2022/07/10 03:57:53;;;;;;;7.53;2.03;;;12.50;99.90;;;;;;6181735;23;20123;-73
2022/07/10 03:58:57;;;;;;;9.73;1.92;;;12.60;99.90;;;;;;6206833;23;20091;-72
2022/07/10 04:01:25;;;;;;;8.18;1.58;;;12.60;99.90;;;;;;6180184;23;20025;-73
2022/07/10 04:03:54;;;;;;;7.90;1.63;;;12.70;99.90;;;;;;6183302;23;20071;-73
2022/07/10 04:06:20;;;;;;;7.13;1.75;;;12.70;99.90;;;;;;6182044;23;20021;-73
2022/07/10 04:08:46;;;;;;;6.03;1.38;;;12.70;99.90;;;;;;6182752;23;20346;-73
2022/07/10 04:11:11;;;;;;;9.10;2.47;;;12.80;99.90;;;;;;6181047;23;20017;-73
2022/07/10 04:13:37;;;;;;;9.65;1.83;;;12.80;99.90;;;;;;6182515;23;20020;-73
2022/07/10 04:16:03;;;;;;;8.05;1.80;;;12.80;99.90;;;;;;6156251;23;20024;-73
2022/07/10 04:18:29;;;;;;;8.82;1.88;;;12.90;99.90;;;;;;6182511;23;20019;-72
2022/07/10 04:20:55;;;;;;;6.88;1.60;;;12.90;99.90;;;;;;6180992;23;20048;-73
2022/07/10 04:23:20;;;;;;;4.78;1.40;;;13.00;99.90;;;;;;6182722;23;20085;-73
2022/07/10 04:25:46;;;;;;;8.05;1.48;;;13.00;99.90;;;;;;6157147;23;20021;-73
2022/07/10 04:28:12;;;;;;;9.38;2.10;;;13.10;99.90;;;;;;6205951;23;20460;-72
2022/07/10 04:30:38;;;;;;;6.95;1.70;;;13.10;99.90;;;;;;6204991;23;20012;-73
2022/07/10 04:33:03;;;;;;;9.57;2.05;;;13.10;99.90;;;;;;6208636;23;20027;-73
2022/07/10 04:35:29;;;;;;;6.05;1.40;;;13.20;99.90;;;;;;6157056;23;20517;-72
2022/07/10 04:37:55;;;;;;;8.85;1.77;;;13.20;99.90;;;;;;6207092;23;20021;-73
2022/07/10 04:40:20;;;;;;;6.72;1.38;;;13.30;99.90;;;;;;6180577;23;20398;-73
2022/07/10 04:42:46;;;;;;;6.90;1.58;;;13.30;99.90;;;;;;6182161;23;20058;-73
2022/07/10 04:45:12;;;;;;;10.82;2.05;;;13.30;99.90;;;;;;6156428;23;20016;-74
2022/07/10 04:47:38;;;;;;;6.90;1.60;;;13.40;99.90;;;;;;6207545;23;20074;-73
2022/07/10 04:50:04;;;;;;;6.80;1.55;;;13.40;99.90;;;;;;6180685;23;20020;-73
2022/07/10 04:52:30;;;;;;;5.80;1.40;;;13.50;99.90;;;;;;6181573;23;20446;-72
2022/07/10 04:54:55;;;;;;;9.15;1.63;;;13.50;99.90;;;;;;6181723;23;20027;-73
2022/07/10 04:57:21;;;;;;;7.90;1.58;;;13.50;99.90;;;;;;6182213;23;20086;-73
2022/07/10 04:59:47;;;;;;;7.53;1.67;;;13.50;99.90;;;;;;6156559;23;20021;-73
2022/07/10 05:02:13;;;;;;;7.35;1.70;;;13.60;99.90;;;;;;6181705;23;20042;-73
2022/07/10 05:04:39;;;;;;;7.65;1.80;;;13.60;99.90;;;;;;6181190;23;20078;-73
2022/07/10 05:07:04;;;;;;;11.65;2.03;;;13.70;99.90;;;;;;6180125;23;20020;-74
2022/07/10 05:09:30;;;;;;;5.82;1.77;;;13.80;99.90;;;;;;6206202;23;20019;-73
2022/07/10 05:11:56;;;;;;;7.38;1.50;;;13.80;99.90;;;;;;6180272;23;20019;-72
2022/07/10 05:14:22;;;;;;;8.43;1.98;;;13.80;99.90;;;;;;6181401;23;20027;-73
2022/07/10 05:16:48;;;;;;;8.27;1.50;;;13.90;99.90;;;;;;6180249;23;20055;-73
2022/07/10 05:19:14;;;;;;;8.80;2.00;;;13.90;99.90;;;;;;6182054;23;20017;-73
2022/07/10 05:21:40;;;;;;;9.32;2.17;;;14.00;99.90;;;;;;6155897;23;20021;-73
2022/07/10 05:24:07;;;;;;;8.07;2.15;;;14.00;99.90;;;;;;6182113;23;20025;-72
2022/07/10 05:26:33;;;;;;;9.75;2.30;;;14.00;99.90;;;;;;6206371;23;20071;-73
2022/07/10 05:28:58;;;;;;;8.57;2.15;;;14.00;99.90;;;;;;6180463;23;20020;-73
2022/07/10 05:31:24;;;;;;;10.05;2.78;;;14.00;99.90;;;;;;6206997;23;20020;-73
2022/07/10 05:33:50;;;;;;;9.52;2.42;;;14.10;99.90;;;;;;6157121;23;20025;-71
2022/07/10 05:36:16;;;;;;;9.80;2.30;;;14.10;99.90;;;;;;6158028;23;20012;-73
2022/07/10 05:38:42;;;;;;;10.18;2.70;;;14.10;99.90;;;;;;6157184;23;20021;-73
2022/07/10 05:41:07;;;;;;;8.07;2.65;;;14.10;99.90;;;;;;6181925;23;20078;-73
2022/07/10 05:43:33;;;;;;;12.93;3.42;;;14.20;99.90;;;;;;6180490;23;20088;-73
2022/07/10 05:45:59;;;;;;;12.60;3.38;;;14.20;99.90;;;;;;6180092;23;20052;-74
2022/07/10 05:48:25;;;;;;;12.45;2.88;;;14.20;99.90;;;;;;6206095;23;20132;-73
2022/07/10 05:50:51;;;;;;;10.77;3.17;;;14.20;99.90;;;;;;6181270;23;20067;-74
2022/07/10 05:53:19;;;;;;;11.30;3.40;;;14.20;99.90;;;;;;6179912;23;20021;-73
2022/07/10 05:55:48;;;;;;;13.40;3.22;;;14.30;99.90;;;;;;6156282;23;20350;-73
2022/07/10 05:58:15;;;;;;;9.98;3.40;;;14.30;99.90;;;;;;6156641;23;20016;-73
2022/07/10 06:00:43;;;;;;;12.73;3.22;;;14.40;99.90;;;;;;6204627;23;20099;-73
2022/07/10 06:03:10;;;;;;;12.13;3.63;;;14.40;99.90;;;;;;6204882;23;20052;-73
2022/07/10 06:05:36;;;;;;;12.98;3.88;;;14.50;99.90;;;;;;6206596;23;20116;-74
2022/07/10 06:08:02;;;;;;;11.93;3.50;;;14.50;99.90;;;;;;6182024;23;20084;-74
2022/07/10 06:10:28;;;;;;;11.55;3.42;;;14.60;99.90;;;;;;6181861;23;20060;-73
2022/07/10 06:12:54;;;;;;;12.98;3.60;;;14.60;99.90;;;;;;6181199;23;20016;-74
2022/07/10 06:15:20;;;;;;;11.73;3.22;;;14.70;99.90;;;;;;6181862;23;20064;-74
2022/07/10 06:17:45;;;;;;;10.07;2.90;;;14.80;99.90;;;;;;6180576;23;20024;-74
2022/07/10 06:20:11;;;;;;;12.60;3.45;;;14.80;99.90;;;;;;6179451;23;20020;-73
2022/07/10 06:22:37;;;;;;;11.02;3.25;;;14.90;99.90;;;;;;6204290;23;20048;-74
2022/07/10 06:25:05;;;;;;;9.80;3.00;;;14.90;99.90;;;;;;6204355;23;20021;-74
2022/07/10 06:27:32;;;;;;;11.82;3.05;;;14.90;99.90;;;;;;6204525;23;20017;-74
2022/07/10 06:29:58;;;;;;;9.02;2.70;;;15.00;99.90;;;;;;6202972;23;20075;-73
2022/07/10 06:32:24;;;;;;;9.15;2.88;;;15.00;99.90;;;;;;6205741;23;20432;-74
2022/07/10 06:34:51;;;;;;;9.00;2.63;;;14.90;99.90;;;;;;6181233;23;20024;-74
2022/07/10 06:37:17;;;;;;;10.38;2.35;;;15.00;99.90;;;;;;6182072;23;20020;-73
2022/07/10 06:39:45;;;;;;;11.50;2.40;;;15.00;99.90;;;;;;6157319;23;20056;-74
2022/07/10 06:42:10;;;;;;;9.45;2.28;;;15.00;99.90;;;;;;6205770;23;20346;-73
2022/07/10 06:44:36;;;;;;;7.50;2.30;;;15.00;99.90;;;;;;6206704;23;20016;-74
2022/07/10 06:49:50;;;;;;;7.85;2.88;;;15.10;99.90;;;;;;6206244;23;20020;-73
2022/07/10 06:52:17;;;;;;;9.13;2.20;;;15.10;99.90;;;;;;6206092;23;20012;-73
2022/07/10 06:54:43;;;;;;;6.93;1.75;;;15.10;99.90;;;;;;6157188;23;20024;-73
2022/07/10 06:57:09;;;;;;;8.10;1.98;;;15.10;99.90;;;;;;6206710;23;20265;-74
2022/07/10 06:59:35;;;;;;;6.88;1.90;;;15.20;99.90;;;;;;6205488;23;20107;-73
2022/07/10 07:02:01;;;;;;;10.25;1.70;;;15.20;99.90;;;;;;6180635;23;20017;-73
2022/07/10 07:04:27;;;;;;;7.68;1.80;;;15.20;99.90;;;;;;6182192;23;20021;-73
2022/07/10 07:06:53;;;;;;;6.03;1.67;;;15.20;99.90;;;;;;6182979;23;20021;-74
2022/07/10 07:09:19;;;;;;;6.60;2.10;;;15.20;99.90;;;;;;6183391;23;20583;-74
2022/07/10 07:11:45;;;;;;;4.78;1.60;;;15.20;99.90;;;;;;6181885;23;20123;-73
2022/07/10 07:14:11;;;;;;;7.85;2.17;;;15.20;99.90;;;;;;6182709;23;20096;-74
2022/07/10 07:16:38;;;;;;;7.00;1.70;;;15.30;99.90;;;;;;6207078;23;20024;-73
2022/07/10 07:19:05;;;;;;;6.25;1.77;;;15.30;99.90;;;;;;6182653;23;20020;-74
2022/07/10 07:24:18;;;;;;;8.25;2.15;;;15.40;99.90;;;;;;6185793;23;20029;-73
2022/07/10 07:26:48;;;;;;;8.73;2.05;;;15.40;99.90;;;;;;6182684;23;20027;-73
2022/07/10 07:29:17;;;;;;;7.78;1.67;;;15.40;99.90;;;;;;6205893;23;20314;-73
2022/07/10 07:31:44;;;;;;;6.63;2.15;;;15.40;99.90;;;;;;6206296;23;20118;-73
2022/07/10 07:34:10;;;;;;;6.78;1.90;;;15.40;99.90;;;;;;6180328;23;20493;-73
2022/07/10 07:36:37;;;;;;;4.40;1.42;;;15.40;99.90;;;;;;6182290;23;20047;-73
2022/07/10 07:39:03;;;;;;;4.88;1.50;;;15.50;99.90;;;;;;6157460;23;20020;-73
2022/07/10 07:41:29;;;;;;;4.80;1.30;;;15.60;99.90;;;;;;6182479;23;20019;-73
2022/07/10 07:43:55;;;;;;;5.00;1.70;;;15.60;99.90;;;;;;6206834;23;20095;-73
2022/07/10 07:46:21;;;;;;;4.85;1.30;;;15.70;99.90;;;;;;6207701;23;20078;-73
2022/07/10 07:48:47;;;;;;;5.75;1.65;;;15.80;99.90;;;;;;6156803;23;20457;-72
2022/07/10 07:51:13;;;;;;;6.47;1.92;;;15.80;99.90;;;;;;6207148;23;20191;-73
2022/07/10 07:53:39;;;;;;;4.65;1.33;;;15.90;99.90;;;;;;6181702;23;20013;-73
2022/07/10 07:56:05;;;;;;;9.20;2.40;;;15.90;99.90;;;;;;6205939;23;20017;-73
2022/07/10 07:58:31;;;;;;;6.38;1.83;;;15.90;99.90;;;;;;6181658;23;20098;-73
2022/07/10 08:00:58;;;;;;;5.72;1.17;;;16.00;99.90;;;;;;6179753;23;20382;-73
2022/07/10 08:03:24;;;;;;;6.70;1.58;;;16.00;99.90;;;;;;6206930;23;20021;-74
2022/07/10 08:05:50;;;;;;;4.03;1.40;;;16.00;99.90;;;;;;6180722;23;20029;-73
2022/07/10 08:08:15;;;;;;;5.75;1.33;;;16.10;99.90;;;;;;6181655;23;20450;-74
2022/07/10 08:10:42;;;;;;;4.78;1.50;;;16.10;99.90;;;;;;6204771;23;20561;-72
2022/07/10 08:13:08;;;;;;;5.30;1.30;;;16.10;99.90;;;;;;6202491;23;20028;-73
2022/07/10 08:15:36;;;;;;;5.15;1.30;;;16.10;99.90;;;;;;6180102;23;20013;-73
2022/07/10 08:18:04;;;;;;;4.18;1.30;;;16.10;99.90;;;;;;6203945;23;20027;-73
2022/07/10 08:20:30;;;;;;;7.55;2.28;;;16.10;99.90;;;;;;6180271;23;20364;-73
2022/07/10 08:22:56;;;;;;;7.15;1.90;;;16.10;99.90;;;;;;6179565;23;20020;-73
2022/07/10 08:25:23;;;;;;;7.97;1.38;;;16.10;99.90;;;;;;6182711;23;20468;-74
2022/07/10 08:27:49;;;;;;;5.10;1.55;;;16.10;99.90;;;;;;6155474;23;20091;-73
2022/07/10 08:30:15;;;;;;;6.43;1.05;;;16.10;99.90;;;;;;6179413;23;20013;-73
2022/07/10 08:32:41;;;;;;;6.13;1.10;;;16.00;99.90;;;;;;6180033;23;20074;-73
2022/07/10 08:35:08;;;;;;;5.75;1.20;;;16.00;99.90;;;;;;6180701;23;20070;-73
2022/07/10 08:37:42;;;;;;;4.65;1.30;;;16.00;99.90;;;;;;6156924;23;20055;-73
2022/07/10 08:40:12;;;;;;;4.05;1.38;;;16.00;99.90;;;;;;6155496;23;20021;-74
2022/07/10 08:42:39;;;;;;;5.50;1.30;;;15.90;99.90;;;;;;6155033;23;20019;-73
2022/07/10 08:45:06;;;;;;;5.82;1.50;;;15.90;99.90;;;;;;6179454;23;20475;-73
2022/07/10 08:47:34;;;;;;;5.82;1.55;;;15.90;99.90;;;;;;6155369;23;20013;-73
2022/07/10 08:50:01;;;;;;;7.28;1.80;;;15.90;99.90;;;;;;6180328;23;20025;-72
2022/07/10 08:52:44;;;;;;;5.63;1.92;;;15.80;99.90;;;;;;6155441;23;20075;-73
2022/07/10 08:55:16;;;;;;;9.20;2.50;;;15.90;99.90;;;;;;6177794;23;20496;-73
2022/07/10 08:57:44;;;;;;;6.22;2.25;;;15.90;99.90;;;;;;6153160;23;20021;-74
2022/07/10 09:00:10;;;;;;;5.97;1.95;;;15.90;99.90;;;;;;6153167;23;20028;-74
2022/07/10 09:02:36;;;;;;;7.43;1.90;;;15.90;99.90;;;;;;6179118;23;20075;-74
2022/07/10 09:05:04;;;;;;;6.63;1.73;;;15.90;99.90;;;;;;6153886;23;20017;-75
2022/07/10 09:07:41;;;;;;;7.28;1.65;;;15.90;99.90;;;;;;6156429;23;20349;-74
2022/07/10 09:10:09;;;;;;;7.15;2.17;;;15.90;99.90;;;;;;6157251;23;20052;-74
2022/07/10 09:12:56;;;;;;;5.53;1.85;;;15.90;99.90;;;;;;6153855;23;20020;-74
2022/07/10 09:15:26;;;;;;;5.53;1.73;;;16.00;99.90;;;;;;6182223;23;20074;-74
2022/07/10 09:18:05;;;;;;;6.72;2.00;;;16.00;99.90;;;;;;6156805;23;20020;-75
2022/07/10 09:20:36;;;;;;;4.82;1.73;;;16.00;99.90;;;;;;6180909;23;20036;-74
2022/07/10 09:23:21;;;;;;;5.10;1.98;;;16.10;99.90;;;;;;6185595;23;20364;-74
2022/07/10 09:25:49;;;;;;;6.80;2.13;;;16.20;99.90;;;;;;6183903;23;20013;-74
2022/07/10 09:28:18;;;;;;;5.40;2.03;;;16.20;99.90;;;;;;6185910;23;20106;-75
2022/07/10 09:30:48;;;;;;;7.03;2.00;;;16.30;99.90;;;;;;6185059;23;20325;-74
2022/07/10 09:33:25;;;;;;;6.40;1.88;;;16.30;99.90;;;;;;6211052;23;20020;-74
2022/07/10 09:36:18;;;;;;;6.47;1.77;;;16.40;99.90;;;;;;6186641;23;20024;-74
2022/07/10 09:38:44;;;;;;;6.97;1.98;;;16.30;99.90;;;;;;6210223;23;20150;-74
2022/07/10 09:41:26;;;;;;;7.15;2.20;;;16.20;99.90;;;;;;6212482;23;20468;-74
2022/07/10 09:44:00;;;;;;;8.43;2.50;;;16.30;99.90;;;;;;6188493;23;20020;-73
2022/07/10 09:46:28;;;;;;;6.47;2.10;;;16.40;99.90;;;;;;6185539;23;20323;-75
2022/07/10 09:49:09;;;;;;;6.95;2.22;;;16.30;99.90;;;;;;6211666;23;20015;-74
2022/07/10 09:51:40;;;;;;;5.45;1.85;;;16.40;99.90;;;;;;6187398;23;20457;-74
2022/07/10 09:54:07;;;;;;;7.03;1.90;;;16.30;99.90;;;;;;6185428;23;20020;-74
2022/07/10 09:56:56;;;;;;;8.57;2.50;;;16.30;99.90;;;;;;6212183;23;20445;-74
2022/07/10 09:59:22;;;;;;;7.25;2.40;;;16.20;99.90;;;;;;6188017;23;20074;-77
2022/07/10 10:01:50;;;;;;;7.07;2.50;;;16.20;99.90;;;;;;6186572;23;20016;-77
2022/07/10 10:04:18;;;;;;;11.10;2.95;;;16.20;99.90;;;;;;6212185;23;20412;-78
2022/07/10 10:06:58;;;;;;;6.45;2.50;;;16.20;99.90;;;;;;6187763;23;20016;-76
2022/07/10 10:09:33;;;;;;;8.85;3.20;;;16.10;99.90;;;;;;6186448;23;20400;-76
2022/07/10 10:12:06;;;;;;;7.05;2.33;;;16.10;99.90;;;;;;6213219;23;20012;-75
2022/07/10 10:14:34;;;;;;;7.22;2.53;;;16.10;99.90;;;;;;6187061;23;20023;-76
2022/07/10 10:17:00;;;;;;;5.35;2.28;;;16.10;99.90;;;;;;6187046;23;20031;-77
2022/07/10 10:22:12;;;;;;;5.90;2.15;;;16.20;99.90;;;;;;6210560;23;20032;-76
2022/07/10 10:24:40;;;;;;;8.43;2.55;;;16.20;99.90;;;;;;6163259;23;20016;-75
2022/07/10 10:27:06;;;;;;;7.47;3.00;;;16.30;99.90;;;;;;6212770;23;20016;-75
2022/07/10 10:29:36;;;;;;;7.75;2.50;;;16.30;99.90;;;;;;6188846;23;20020;-74
2022/07/10 10:32:01;;;;;;;9.85;2.90;;;16.30;99.90;;;;;;6186160;23;20012;-75
2022/07/10 10:34:44;;;;;;;6.78;2.42;;;16.20;99.90;;;;;;6188407;23;20042;-74
2022/07/10 10:37:37;;;;;;;9.30;3.08;;;16.20;99.90;;;;;;6211766;23;20020;-74
2022/07/10 10:40:05;;;;;;;7.22;2.33;;;16.20;99.90;;;;;;6208438;23;20024;-75
2022/07/10 10:42:41;;;;;;;8.73;3.03;;;16.20;99.90;;;;;;6187316;23;20020;-75
2022/07/10 10:45:29;;;;;;;9.80;3.10;;;16.20;99.90;;;;;;6211223;23;20031;-75
2022/07/10 10:48:15;;;;;;;9.70;3.08;;;16.30;99.90;;;;;;6213277;23;20020;-75
2022/07/10 10:50:45;;;;;;;8.68;3.03;;;16.50;99.90;;;;;;6212276;23;20445;-75
2022/07/10 10:53:28;;;;;;;8.18;3.08;;;16.60;99.90;;;;;;6186009;23;20016;-76
2022/07/10 10:56:00;;;;;;;9.02;3.38;;;16.70;99.90;;;;;;6162403;23;20024;-75
2022/07/10 10:58:28;;;;;;;8.10;2.67;;;16.80;99.90;;;;;;6187002;23;20103;-76
2022/07/10 11:01:29;;;;;;;6.82;3.28;;;16.90;99.90;;;;;;6213141;23;20016;-77
2022/07/10 11:04:04;;;;;;;7.50;2.95;;;17.00;99.90;;;;;;6212580;23;20441;-77
2022/07/10 11:06:43;;;;;;;5.65;3.08;;;17.10;99.90;;;;;;6186646;23;20058;-76
2022/07/10 11:09:32;;;;;;;7.78;2.50;;;17.40;99.90;;;;;;6212437;23;20528;-78
2022/07/10 11:12:08;;;;;;;6.78;2.10;;;17.60;99.90;;;;;;6187485;23;20441;-75
2022/07/10 11:14:45;;;;;;;5.68;1.95;;;17.80;99.90;;;;;;6212798;23;20396;-76
2022/07/10 11:17:11;;;;;;;4.13;1.92;;;17.80;99.90;;;;;;6211474;23;20016;-78
2022/07/10 11:19:37;;;;;;;8.40;2.88;;;17.80;99.90;;;;;;6187411;23;20067;-77
2022/07/10 11:22:06;;;;;;;6.43;2.35;;;17.80;99.90;;;;;;6184853;23;20024;-77
2022/07/10 11:24:38;;;;;;;7.50;1.92;;;17.90;99.90;;;;;;6188389;23;20012;-76
2022/07/10 11:27:53;;;;;;;6.35;2.28;;;17.90;99.90;;;;;;6210974;23;20016;-76
2022/07/10 11:30:19;;;;;;;8.05;1.88;;;17.90;99.90;;;;;;6184732;23;20047;-76
2022/07/10 11:32:45;;;;;;;5.28;2.17;;;18.00;99.90;;;;;;6211558;23;20024;-77
2022/07/10 11:35:15;;;;;;;4.18;1.55;;;18.10;99.90;;;;;;6160637;23;20396;-77
2022/07/10 11:37:54;;;;;;;5.45;1.60;;;18.20;99.90;;;;;;6186804;23;20027;-76
2022/07/10 11:40:20;;;;;;;6.10;1.70;;;18.20;99.90;;;;;;6185587;23;20968;-77
2022/07/10 11:42:50;;;;;;;4.43;1.73;;;18.20;99.90;;;;;;6212861;23;20055;-76
2022/07/10 11:45:26;;;;;;;8.23;2.00;;;18.10;99.90;;;;;;6186307;23;20544;-76
2022/07/10 11:47:56;;;;;;;6.93;1.95;;;18.10;99.90;;;;;;6163539;23;20016;-77
2022/07/10 11:50:25;;;;;;;5.40;1.98;;;18.00;99.90;;;;;;6185562;23;20022;-76
2022/07/10 11:52:51;;;;;;;5.22;2.00;;;17.90;99.90;;;;;;6162720;23;20027;-78
2022/07/10 11:55:19;;;;;;;5.90;2.20;;;17.80;99.90;;;;;;6186011;23;20442;-76
2022/07/10 11:57:48;;;;;;;5.32;1.90;;;17.80;99.90;;;;;;6185579;23;20058;-78
2022/07/10 12:00:32;;;;;;;5.07;1.70;;;17.70;99.90;;;;;;6162934;23;20361;-76
2022/07/10 12:03:18;;;;;;;5.47;2.00;;;17.60;99.90;;;;;;6211743;23;20075;-76
2022/07/10 12:05:44;;;;;;;5.18;1.90;;;17.50;99.90;;;;;;6211970;23;20016;-76
2022/07/10 12:08:10;;;;;;;4.57;1.90;;;17.60;99.90;;;;;;6160308;23;20090;-77
2022/07/10 12:10:41;;;;;;;6.13;2.03;;;17.60;99.90;;;;;;6186182;23;20069;-78
2022/07/10 12:13:16;;;;;;;7.25;2.10;;;17.70;99.90;;;;;;6181619;23;20404;-77
2022/07/10 12:15:46;;;;;;;7.38;2.33;;;17.70;99.90;;;;;;6179837;23;20020;-77
2022/07/10 12:18:20;;;;;;;7.22;3.42;;;17.60;99.90;;;;;;6184907;23;20617;-77
2022/07/10 12:20:52;;;;;;;11.10;3.20;;;17.50;99.90;;;;;;6181093;23;20465;-77
2022/07/10 12:23:19;;;;;;;6.78;2.80;;;17.40;99.90;;;;;;6182465;23;20099;-77
2022/07/10 12:25:49;;;;;;;7.65;2.90;;;17.30;99.90;;;;;;6204087;23;20016;-78
2022/07/10 12:28:18;;;;;;;6.43;2.88;;;17.30;99.90;;;;;;6185436;23;20016;-77
2022/07/10 12:30:46;;;;;;;6.90;2.95;;;17.30;99.90;;;;;;6185208;23;20099;-77
2022/07/10 12:33:17;;;;;;;7.53;3.65;;;17.40;99.90;;;;;;6182907;23;20020;-77
2022/07/10 12:36:03;;;;;;;9.13;3.40;;;17.40;99.90;;;;;;6183856;23;20334;-77
2022/07/10 12:38:33;;;;;;;8.98;2.90;;;17.40;99.90;;;;;;6161800;23;20032;-77
2022/07/10 12:41:08;;;;;;;9.30;2.47;;;17.40;99.90;;;;;;6186223;23;20023;-77
2022/07/10 12:43:34;;;;;;;6.95;3.80;;;17.30;99.90;;;;;;6209831;23;20027;-77
2022/07/10 12:46:19;;;;;;;8.52;2.67;;;17.20;99.90;;;;;;6187168;23;20024;-77
2022/07/10 12:49:07;;;;;;;9.05;3.10;;;17.20;99.90;;;;;;6161905;23;20520;-77
2022/07/10 12:51:45;;;;;;;8.07;2.67;;;17.20;99.90;;;;;;6186203;23;20016;-77
2022/07/10 12:54:32;;;;;;;6.22;2.55;;;17.20;99.90;;;;;;6186456;23;20141;-76
2022/07/10 12:57:00;;;;;;;5.88;1.92;;;17.30;99.90;;;;;;6181222;23;20260;-79
2022/07/10 12:59:27;;;;;;;7.20;2.33;;;17.30;99.90;;;;;;6211384;23;20016;-78
2022/07/10 13:01:53;;;;;;;7.30;2.53;;;17.30;99.90;;;;;;6184081;23;20453;-78
2022/07/10 13:04:30;;;;;;;7.40;2.47;;;17.40;99.90;;;;;;6160321;23;20048;-78